Time;durP1;ratioP1;P1;durP2;ratioP2;P2;SDS_P1;SDS_P2;PMS_P1;PMS_P2;Temp;Humidity;BMP_temperature;BMP_pressure;BME280_temperature;BME280_humidity;BME280_pressure;Samples;Min_cycle;Max_cycle;Signal;HPM_P1;HPM_P2
2022/01/22 00:01:22;;;;;;;8.68;5.80;;;;;;;-2.89;100.00;98668.45;2257413;78;21519;-79
2022/01/22 00:04:22;;;;;;;14.10;6.50;;;;;;;-2.91;100.00;98675.88;2234199;80;21018;-80
2022/01/22 00:07:23;;;;;;;10.15;5.47;;;;;;;-2.94;100.00;98674.77;2252878;79;21426;-80
2022/01/22 00:10:25;;;;;;;6.50;4.80;;;;;;;-2.96;100.00;98671.48;2231672;78;21094;-80
2022/01/22 00:16:45;;;;;;;13.45;6.05;;;;;;;-3.05;100.00;98682.31;2190442;81;21037;-80
2022/01/22 00:19:45;;;;;;;18.17;7.20;;;;;;;-3.06;100.00;98679.38;2182436;80;21014;-80
2022/01/22 00:22:46;;;;;;;14.30;5.85;;;;;;;-3.10;100.00;98671.08;2202117;80;21050;-81
2022/01/22 00:25:47;;;;;;;10.15;5.40;;;;;;;-3.11;100.00;98673.25;2290011;77;20956;-80
2022/01/22 00:28:48;;;;;;;11.35;5.42;;;;;;;-3.16;100.00;98678.67;2253562;78;20921;-80
2022/01/22 00:31:48;;;;;;;9.30;6.17;;;;;;;-3.23;100.00;98674.83;2190557;81;20995;-80
2022/01/22 00:34:49;;;;;;;8.13;5.70;;;;;;;-3.26;100.00;98671.66;2190590;81;21487;-80
2022/01/22 00:37:50;;;;;;;12.80;5.25;;;;;;;-3.30;100.00;98672.28;2191092;80;21038;-80
2022/01/22 00:40:51;;;;;;;12.70;6.17;;;;;;;-3.32;100.00;98679.23;2191858;81;20968;-80
2022/01/22 00:43:53;;;;;;;14.73;7.47;;;;;;;-3.39;100.00;98679.23;2190202;81;20991;-80
2022/01/22 00:46:54;;;;;;;18.12;7.92;;;;;;;-3.41;100.00;98677.23;2190689;81;21342;-80
2022/01/22 00:49:55;;;;;;;14.13;7.15;;;;;;;-3.47;100.00;98684.84;2192357;80;20983;-80
2022/01/22 00:52:56;;;;;;;15.35;7.58;;;;;;;-3.52;100.00;98683.00;2191897;81;21031;-80
2022/01/22 00:55:57;;;;;;;12.58;7.22;;;;;;;-3.60;100.00;98677.52;2190520;81;20971;-79
2022/01/22 00:58:57;;;;;;;12.35;6.15;;;;;;;-3.68;100.00;98673.31;2205342;80;20928;-79
2022/01/22 01:01:58;;;;;;;12.55;6.58;;;;;;;-3.69;100.00;98677.25;2231256;80;21006;-80
2022/01/22 01:04:59;;;;;;;9.23;5.58;;;;;;;-3.70;100.00;98670.48;2221666;80;20974;-80
2022/01/22 01:08:00;;;;;;;12.78;6.33;;;;;;;-3.77;100.00;98678.52;2193978;80;21006;-80
2022/01/22 01:11:01;;;;;;;14.55;6.97;;;;;;;-3.81;100.00;98677.52;2262068;77;21069;-80
2022/01/22 01:14:04;;;;;;;13.15;6.28;;;;;;;-3.86;100.00;98670.10;2222133;79;20905;-81
2022/01/22 01:33:38;;;;;;;22.80;8.48;;;;;;;-4.04;100.00;98687.80;2264128;79;21042;-80
2022/01/22 01:36:30;;;;;;;15.20;8.08;;;;;;;-4.05;100.00;98689.54;2261800;78;20965;-80
2022/01/22 01:39:33;;;;;;;13.48;7.00;;;;;;;-4.02;100.00;98680.89;2263085;78;20949;-80
2022/01/22 01:42:51;;;;;;;11.97;6.40;;;;;;;-3.97;100.00;98680.14;2263778;77;20998;-80
2022/01/22 01:45:48;;;;;;;12.15;6.03;;;;;;;-3.92;100.00;98694.78;2263098;79;21527;-80
2022/01/22 01:48:49;;;;;;;11.03;5.72;;;;;;;-3.87;100.00;98684.27;2263553;79;21008;-80
2022/01/22 01:51:51;;;;;;;6.80;5.12;;;;;;;-3.83;100.00;98687.03;2262127;79;20934;-80
2022/01/22 01:55:11;;;;;;;7.22;4.83;;;;;;;-3.76;100.00;98690.85;2264189;77;20953;-81
2022/01/22 01:58:06;;;;;;;19.95;10.82;;;;;;;-3.73;100.00;98685.58;2263293;77;21080;-80
2022/01/22 02:01:07;;;;;;;4.35;3.75;;;;;;;-3.69;100.00;98680.63;2265951;77;20993;-80
2022/01/22 02:04:11;;;;;;;3.75;3.02;;;;;;;-3.64;100.00;98685.03;2294596;77;20949;-81
2022/01/22 02:07:11;;;;;;;6.70;3.98;;;;;;;-3.56;100.00;98687.14;2305611;77;21019;-78
2022/01/22 02:10:18;;;;;;;5.37;3.02;;;;;;;-3.45;100.00;98689.87;2302878;77;20985;-80
2022/01/22 02:26:24;;;;;;;3.98;3.67;;;;;;;-3.34;100.00;98668.27;2258160;78;21052;-80
2022/01/22 02:29:25;;;;;;;4.75;3.70;;;;;;;-3.39;100.00;98669.45;2258401;79;20957;-80
2022/01/22 02:33:00;;;;;;;7.50;3.55;;;;;;;-3.48;100.00;98671.66;2258296;78;20938;-81
2022/01/22 02:35:56;;;;;;;7.58;4.08;;;;;;;-3.52;100.00;98667.65;2283584;77;21025;-77
2022/01/22 02:38:59;;;;;;;8.33;4.47;;;;;;;-3.59;100.00;98673.22;2298626;77;21020;-78
2022/01/22 02:41:55;;;;;;;7.75;5.28;;;;;;;-3.62;100.00;98671.67;2298690;77;21048;-81
2022/01/22 02:44:55;;;;;;;4.95;4.03;;;;;;;-3.67;100.00;98671.57;2299880;77;20938;-78
2022/01/22 02:47:56;;;;;;;8.15;5.55;;;;;;;-3.79;100.00;98676.97;2267422;77;20941;-79
2022/01/22 02:50:57;;;;;;;7.17;4.45;;;;;;;-3.89;100.00;98675.41;2237391;79;21000;-79
2022/01/22 02:53:59;;;;;;;6.30;4.65;;;;;;;-3.97;100.00;98683.16;2253657;79;20966;-79
2022/01/22 02:57:00;;;;;;;7.70;5.83;;;;;;;-4.08;100.00;98682.52;2256083;78;21025;-79
2022/01/22 03:00:01;;;;;;;7.60;5.72;;;;;;;-4.16;100.00;98681.67;2258642;77;20937;-79
2022/01/22 03:03:02;;;;;;;8.58;6.67;;;;;;;-4.22;100.00;98678.17;2258487;79;21053;-80
2022/01/22 03:06:03;;;;;;;10.58;6.45;;;;;;;-4.19;100.00;98676.73;2258757;79;21532;-80
2022/01/22 03:09:07;;;;;;;15.88;7.65;;;;;;;-4.22;100.00;98676.90;2258604;78;21004;-79
2022/01/22 03:18:46;;;;;;;17.05;8.10;;;;;;;-4.19;100.00;98683.59;2262644;79;21018;-78
2022/01/22 03:21:53;;;;;;;16.82;9.10;;;;;;;-4.22;100.00;98687.58;2260149;79;21072;-78
2022/01/22 03:28:02;;;;;;;9.90;7.97;;;;;;;-4.34;100.00;98684.00;2305834;77;21036;-79
2022/01/22 03:31:03;;;;;;;13.62;8.00;;;;;;;-4.41;100.00;98686.07;2305956;77;21484;-78
2022/01/22 03:34:04;;;;;;;15.60;8.53;;;;;;;-4.42;100.00;98690.81;2303538;77;21084;-78
2022/01/22 03:37:04;;;;;;;27.17;14.33;;;;;;;-4.38;100.00;98696.14;2264176;79;21000;-78
2022/01/22 03:40:05;;;;;;;13.60;9.10;;;;;;;-4.28;100.00;98696.90;2295102;77;21017;-79
2022/01/22 03:43:06;;;;;;;13.58;9.80;;;;;;;-4.19;100.00;98703.59;2284486;77;21530;-79
2022/01/22 03:46:07;;;;;;;15.05;10.30;;;;;;;-4.12;100.00;98707.42;2268977;77;21044;-79
2022/01/22 03:49:10;;;;;;;22.30;11.75;;;;;;;-4.06;100.00;98707.08;2305837;77;20998;-79
2022/01/22 03:52:10;;;;;;;17.55;11.00;;;;;;;-3.95;100.00;98719.25;2305765;77;21599;-81
2022/01/22 03:55:21;;;;;;;21.73;12.63;;;;;;;-3.86;100.00;98717.89;2305913;77;20989;-78
2022/01/22 03:58:14;;;;;;;14.60;10.63;;;;;;;-3.81;100.00;98721.84;2271506;77;21053;-79
2022/01/22 04:01:57;;;;;;;15.15;10.90;;;;;;;-3.79;100.00;98723.03;2264262;78;21000;-79
2022/01/22 04:04:40;;;;;;;17.07;10.53;;;;;;;-3.76;100.00;98718.54;2263043;79;20949;-79
2022/01/22 04:08:08;;;;;;;19.07;11.18;;;;;;;-3.72;100.00;98724.32;2266244;77;20977;-79
2022/01/22 04:10:52;;;;;;;18.92;11.38;;;;;;;-3.69;100.00;98725.41;2301153;77;21048;-80
2022/01/22 04:13:59;;;;;;;19.50;12.37;;;;;;;-3.60;100.00;98718.93;2304805;77;20986;-79
2022/01/22 04:17:05;;;;;;;13.78;10.55;;;;;;;-3.53;100.00;98721.50;2304952;77;21426;-79
2022/01/22 04:26:53;;;;;;;14.60;11.45;;;;;;;-3.46;100.00;98718.95;2279019;77;21063;-79
2022/01/22 04:29:45;;;;;;;20.90;12.15;;;;;;;-3.44;100.00;98725.61;2263373;79;21112;-78
2022/01/22 04:32:45;;;;;;;24.65;11.73;;;;;;;-3.41;100.00;98731.00;2283259;77;21457;-80
2022/01/22 04:35:46;;;;;;;14.28;10.88;;;;;;;-3.37;100.00;98721.42;2305718;77;21071;-79
2022/01/22 04:38:47;;;;;;;19.48;12.50;;;;;;;-3.39;100.00;98728.34;2305998;77;20966;-79
2022/01/22 04:41:48;;;;;;;19.62;12.78;;;;;;;-3.41;100.00;98734.84;2305948;77;21068;-79
2022/01/22 04:48:09;;;;;;;17.80;10.48;;;;;;;-3.41;100.00;98736.13;2264248;78;21004;-79
2022/01/22 04:57:33;;;;;;;17.57;10.40;;;;;;;-3.42;100.00;98743.90;2266657;77;21651;-81
2022/01/22 05:00:34;;;;;;;12.95;10.15;;;;;;;-3.46;100.00;98737.69;2267102;77;20949;-82
2022/01/22 05:03:35;;;;;;;14.30;9.10;;;;;;;-3.45;100.00;98752.13;2264077;79;21102;-80
2022/01/22 05:06:36;;;;;;;13.03;9.33;;;;;;;-3.41;100.00;98748.92;2263898;79;21081;-86
2022/01/22 05:09:36;;;;;;;12.07;7.85;;;;;;;-3.38;100.00;98747.91;2264226;79;21004;-86
2022/01/22 05:12:37;;;;;;;14.35;8.38;;;;;;;-3.36;100.00;98759.73;2269982;78;21047;-88
2022/01/22 05:15:38;;;;;;;13.88;9.08;;;;;;;-3.36;100.00;98755.89;2285672;78;21542;-79
2022/01/22 05:18:48;;;;;;;12.37;8.83;;;;;;;-3.35;100.00;98757.99;2285713;78;20992;-80
2022/01/22 05:21:43;;;;;;;12.23;8.25;;;;;;;-3.35;100.00;98767.77;2275233;78;21060;-80
2022/01/22 05:24:49;;;;;;;16.35;8.90;;;;;;;-3.33;100.00;98758.72;2244968;78;20972;-85
2022/01/22 05:30:57;;;;;;;18.30;10.93;;;;;;;-3.29;100.00;98769.98;2240234;78;21581;-78
2022/01/22 05:36:58;;;;;;;28.98;13.15;;;;;;;-3.29;100.00;98771.27;2227387;78;21015;-79
2022/01/22 05:39:56;;;;;;;28.52;12.73;;;;;;;-3.29;100.00;98771.27;2243787;79;20972;-82
2022/01/22 05:42:57;;;;;;;27.77;13.22;;;;;;;-3.31;100.00;98783.31;2244670;79;20999;-79
2022/01/22 05:45:58;;;;;;;30.35;12.90;;;;;;;-3.36;100.00;98783.23;2244393;79;21001;-79
2022/01/22 05:48:58;;;;;;;21.42;12.33;;;;;;;-3.43;100.00;98781.48;2244553;79;21424;-81
2022/01/22 05:52:02;;;;;;;19.05;10.45;;;;;;;-3.50;100.00;98786.12;2243481;79;21005;-79
2022/01/22 06:01:22;;;;;;;16.97;11.85;;;;;;;-3.72;100.00;98794.70;2285372;78;21515;-78
2022/01/22 06:04:23;;;;;;;21.45;12.03;;;;;;;-3.82;100.00;98803.36;2285223;78;20995;-80
2022/01/22 06:07:24;;;;;;;16.57;12.53;;;;;;;-3.89;100.00;98817.86;2285436;78;21467;-76
2022/01/22 06:10:29;;;;;;;22.52;13.83;;;;;;;-3.95;100.00;98819.47;2288353;77;21088;-82
2022/01/22 06:13:43;;;;;;;19.37;12.40;;;;;;;-3.95;100.00;98816.91;2271929;77;20957;-83
2022/01/22 06:16:32;;;;;;;19.82;13.70;;;;;;;-3.99;100.00;98821.39;2287466;77;20945;-83
2022/01/22 06:19:33;;;;;;;22.45;14.45;;;;;;;-4.03;100.00;98813.05;2305910;77;21033;-80
2022/01/22 06:22:34;;;;;;;21.95;14.33;;;;;;;-4.07;100.00;98817.16;2305682;77;21024;-80
2022/01/22 06:25:34;;;;;;;25.52;14.28;;;;;;;-4.11;100.00;98825.92;2305915;77;21076;-80
2022/01/22 06:28:36;;;;;;;25.95;14.28;;;;;;;-4.15;100.00;98835.47;2305806;77;20938;-80
2022/01/22 06:31:37;;;;;;;28.45;16.25;;;;;;;-4.13;100.00;98832.83;2305766;77;21060;-80
2022/01/22 06:34:37;;;;;;;24.98;13.98;;;;;;;-4.11;100.00;98845.09;2305993;77;20977;-80
2022/01/22 06:37:38;;;;;;;31.82;14.78;;;;;;;-4.10;100.00;98837.34;2306035;77;20976;-80
2022/01/22 06:43:40;;;;;;;20.70;11.75;;;;;;;-4.05;100.00;98837.06;2305911;77;20954;-80
2022/01/22 06:46:41;;;;;;;17.70;10.35;;;;;;;-3.98;100.00;98842.22;2305799;77;20986;-80
2022/01/22 06:49:41;;;;;;;14.60;9.40;;;;;;;-3.93;100.00;98846.64;2305683;77;20954;-80
2022/01/22 06:52:42;;;;;;;16.32;10.68;;;;;;;-3.88;100.00;98838.69;2306030;77;21084;-80
2022/01/22 06:55:47;;;;;;;15.53;11.63;;;;;;;-3.86;100.00;98846.64;2305753;77;20922;-80
2022/01/22 06:58:46;;;;;;;17.90;11.38;;;;;;;-3.78;100.00;98860.29;2305072;77;20962;-81
2022/01/22 07:01:48;;;;;;;23.25;11.73;;;;;;;-3.74;100.00;98857.48;2305937;77;21528;-82
2022/01/22 07:04:49;;;;;;;17.12;11.55;;;;;;;-3.67;100.00;98862.24;2305974;77;21566;-80
2022/01/22 07:07:50;;;;;;;20.95;10.98;;;;;;;-3.65;100.00;98852.77;2305990;77;20906;-80
2022/01/22 07:10:51;;;;;;;23.80;12.80;;;;;;;-3.58;100.00;98856.14;2305579;76;21564;-79
2022/01/22 07:13:51;;;;;;;20.27;12.50;;;;;;;-3.51;100.00;98858.73;2305562;77;20930;-80
2022/01/22 07:16:52;;;;;;;19.85;12.10;;;;;;;-3.43;100.00;98863.41;2306444;77;21011;-80
2022/01/22 07:19:54;;;;;;;20.32;12.68;;;;;;;-3.36;100.00;98860.88;2305735;77;20965;-80
2022/01/22 07:23:02;;;;;;;21.62;12.95;;;;;;;-3.31;100.00;98863.98;2305643;77;20985;-80
2022/01/22 07:25:57;;;;;;;15.55;9.33;;;;;;;-3.25;100.00;98869.21;2304392;77;20972;-81
2022/01/22 07:28:58;;;;;;;20.85;11.65;;;;;;;-3.19;100.00;98881.67;2305852;77;20992;-82
2022/01/22 07:32:01;;;;;;;21.17;11.50;;;;;;;-3.11;100.00;98870.95;2305729;77;21065;-82
2022/01/22 07:35:02;;;;;;;23.55;12.58;;;;;;;-3.04;100.00;98874.35;2305609;77;20997;-85
2022/01/22 07:38:02;;;;;;;26.82;13.50;;;;;;;-2.99;100.00;98871.08;2306150;77;21437;-85
2022/01/22 07:41:03;;;;;;;22.52;12.20;;;;;;;-2.92;100.00;98882.62;2305880;77;21014;-85
2022/01/22 07:44:04;;;;;;;22.25;12.43;;;;;;;-2.84;100.00;98877.01;2306290;77;21480;-84
2022/01/22 07:47:05;;;;;;;22.65;12.23;;;;;;;-2.75;100.00;98896.97;2305030;77;20958;-85
2022/01/22 07:50:06;;;;;;;17.20;11.45;;;;;;;-2.69;100.00;98900.45;2306122;77;21472;-84
2022/01/22 07:53:07;;;;;;;16.97;10.15;;;;;;;-2.63;100.00;98906.97;2305751;77;20994;-83
2022/01/22 07:56:11;;;;;;;22.58;8.23;;;;;;;-2.56;100.00;98915.95;2305620;77;20981;-86
2022/01/22 07:59:11;;;;;;;17.70;9.83;;;;;;;-2.51;100.00;98921.60;2305110;76;20988;-82
2022/01/22 08:02:13;;;;;;;18.40;10.70;;;;;;;-2.44;100.00;98918.22;2305534;77;20974;-84
2022/01/22 08:05:14;;;;;;;23.20;10.18;;;;;;;-2.36;100.00;98922.43;2305777;77;21468;-85
2022/01/22 08:08:15;;;;;;;16.32;9.73;;;;;;;-2.31;100.00;98922.49;2305672;77;21056;-83
2022/01/22 08:11:17;;;;;;;19.23;10.70;;;;;;;-2.22;100.00;98934.40;2187014;81;21020;-83
2022/01/22 08:14:18;;;;;;;16.32;9.88;;;;;;;-2.16;100.00;98941.27;2187023;81;21665;-84
2022/01/22 08:17:19;;;;;;;23.35;7.85;;;;;;;-2.06;100.00;98945.38;2187374;81;21004;-84
2022/01/22 08:20:24;;;;;;;19.42;9.93;;;;;;;-1.91;100.00;98946.19;2187014;81;20980;-84
2022/01/22 08:23:23;;;;;;;22.42;11.30;;;;;;;-1.91;100.00;98946.19;2187157;81;21546;-84
2022/01/22 08:26:31;;;;;;;17.87;8.68;;;;;;;-1.75;100.00;98950.23;2183817;81;21025;-84
2022/01/22 08:29:29;;;;;;;17.62;7.87;;;;;;;-1.62;100.00;98953.34;2233445;80;21102;-83
2022/01/22 08:32:55;;;;;;;12.45;5.87;;;;;;;-1.54;100.00;98955.78;2233913;80;21460;-82
2022/01/22 08:38:51;;;;;;;11.40;6.00;;;;;;;-1.54;100.00;98963.95;2234235;80;21059;-85
2022/01/22 08:41:52;;;;;;;12.47;6.92;;;;;;;-1.52;100.00;98962.10;2234497;80;21435;-85
2022/01/22 08:44:53;;;;;;;11.20;5.70;;;;;;;-1.47;100.00;98971.61;2234348;80;21028;-86
2022/01/22 08:47:54;;;;;;;10.18;6.20;;;;;;;-1.47;100.00;98975.00;2234407;80;21076;-85
2022/01/22 08:50:55;;;;;;;12.18;6.55;;;;;;;-1.45;100.00;98971.89;2234443;80;20980;-85
2022/01/22 08:53:58;;;;;;;17.05;8.00;;;;;;;-1.44;100.00;98981.24;2234040;79;21075;-86
2022/01/22 08:56:59;;;;;;;12.00;7.42;;;;;;;-1.32;100.00;98981.38;2234358;80;21075;-85
2022/01/22 09:00:00;;;;;;;8.73;5.47;;;;;;;-1.28;100.00;98987.95;2234536;80;21075;-86
2022/01/22 09:03:01;;;;;;;13.60;6.60;;;;;;;-1.27;100.00;98988.34;2234325;80;21068;-85
2022/01/22 09:06:01;;;;;;;10.05;6.28;;;;;;;-1.21;100.00;98996.92;2234027;80;21004;-86
2022/01/22 09:09:09;;;;;;;15.83;8.40;;;;;;;-1.15;100.00;99005.53;2348361;75;21084;-85
2022/01/22 09:12:12;;;;;;;14.68;7.08;;;;;;;-1.08;100.00;99013.68;2357812;75;20990;-85
2022/01/22 09:15:12;;;;;;;8.60;5.87;;;;;;;-0.98;100.00;99005.73;2360978;75;21087;-83
2022/01/22 09:18:13;;;;;;;15.25;8.83;;;;;;;-0.94;100.00;99014.41;2362298;75;21494;-85
2022/01/22 09:21:14;;;;;;;11.57;6.03;;;;;;;-0.92;100.00;99021.56;2362354;75;21005;-86
2022/01/22 09:24:19;;;;;;;11.40;4.92;;;;;;;-0.96;100.00;99020.59;2362104;75;21042;-83
2022/01/22 09:27:18;;;;;;;17.35;7.40;;;;;;;-0.92;100.00;99027.98;2362065;75;21022;-86
2022/01/22 09:30:19;;;;;;;11.45;6.62;;;;;;;-0.82;100.00;99026.10;2362563;75;21008;-85
2022/01/22 09:33:20;;;;;;;11.70;6.58;;;;;;;-0.76;100.00;99036.82;2362317;75;20966;-85
2022/01/22 09:36:20;;;;;;;15.98;5.37;;;;;;;-0.76;100.00;99025.25;2362618;75;20986;-83
2022/01/22 09:39:21;;;;;;;11.53;5.53;;;;;;;-0.72;100.00;99038.75;2362348;75;20903;-86
2022/01/22 09:42:22;;;;;;;13.50;6.50;;;;;;;-0.74;100.00;99043.97;2362241;75;20970;-85
2022/01/22 09:45:23;;;;;;;16.70;6.45;;;;;;;-0.72;100.00;99028.00;2361986;75;20969;-84
2022/01/22 09:48:24;;;;;;;9.85;5.20;;;;;;;-0.72;100.00;99037.46;2362391;75;21032;-87
2022/01/22 09:51:25;;;;;;;14.55;7.47;;;;;;;-0.67;100.00;99036.68;2362374;75;21020;-79
2022/01/22 09:54:25;;;;;;;11.35;6.28;;;;;;;-0.55;100.00;99037.15;2362658;75;20966;-84
2022/01/22 09:57:29;;;;;;;11.20;5.83;;;;;;;-0.41;100.00;99054.26;2363044;75;21042;-83
2022/01/22 10:00:30;;;;;;;11.40;6.30;;;;;;;-0.39;100.00;99048.08;2362250;75;21029;-85
2022/01/22 10:03:31;;;;;;;13.30;6.45;;;;;;;-0.38;100.00;99051.47;2334212;75;21021;-84
2022/01/22 10:06:32;;;;;;;11.78;5.95;;;;;;;-0.31;100.00;99043.70;2361815;75;20998;-84
2022/01/22 10:09:46;;;;;;;8.65;4.25;;;;;;;-0.32;100.00;99042.88;2361893;75;21002;-84
2022/01/22 10:12:38;;;;;;;9.85;5.33;;;;;;;-0.38;100.00;99066.44;2359309;75;21006;-85
2022/01/22 10:15:39;;;;;;;10.35;4.17;;;;;;;-0.43;100.00;99064.66;2357942;75;21038;-81
2022/01/22 10:18:40;;;;;;;9.03;4.45;;;;;;;-0.49;100.00;99059.91;2358013;75;20986;-87
2022/01/22 10:21:41;;;;;;;10.75;6.15;;;;;;;-0.53;100.00;99053.33;2357528;75;21050;-84
2022/01/22 10:24:44;;;;;;;18.55;7.65;;;;;;;-0.54;100.00;99070.98;2357498;75;21465;-86
2022/01/22 10:27:51;;;;;;;16.20;8.68;;;;;;;-0.52;100.00;99077.30;2357572;75;20990;-84
2022/01/22 10:30:47;;;;;;;13.32;5.97;;;;;;;-0.58;100.00;99069.05;2356527;75;20955;-85
2022/01/22 10:33:51;;;;;;;17.57;6.75;;;;;;;-0.54;100.00;99065.02;2357721;75;21536;-86
2022/01/22 10:36:53;;;;;;;18.57;8.60;;;;;;;-0.46;100.00;99058.88;2227301;80;21056;-85
2022/01/22 10:39:54;;;;;;;10.85;5.20;;;;;;;-0.39;100.00;99070.41;2227037;80;21028;-86
2022/01/22 10:42:56;;;;;;;12.03;6.08;;;;;;;-0.36;100.00;99071.52;2227154;80;21231;-85
2022/01/22 10:46:00;;;;;;;9.08;5.30;;;;;;;-0.34;100.00;99066.62;2227067;80;21625;-86
2022/01/22 10:49:01;;;;;;;13.70;7.33;;;;;;;-0.23;100.00;99083.09;2227294;80;21071;-85
2022/01/22 10:52:04;;;;;;;11.55;6.33;;;;;;;-0.06;100.00;99082.78;2227395;80;21087;-85
2022/01/22 10:55:05;;;;;;;10.30;6.10;;;;;;;-0.09;100.00;99085.55;2227359;79;21067;-84
2022/01/22 10:58:07;;;;;;;16.25;7.87;;;;;;;-0.08;100.00;99088.05;2227341;80;21028;-86
2022/01/22 11:01:11;;;;;;;11.18;6.78;;;;;;;-0.09;100.00;99100.99;2226790;80;21092;-85
2022/01/22 11:04:12;;;;;;;13.83;6.22;;;;;;;-0.07;100.00;99101.73;2227069;80;21848;-84
2022/01/22 11:07:16;;;;;;;12.03;5.50;;;;;;;-0.11;100.00;99090.80;2226972;80;20952;-85
2022/01/22 11:10:17;;;;;;;12.00;6.00;;;;;;;-0.20;100.00;99107.33;2226963;80;21075;-84
2022/01/22 11:13:20;;;;;;;10.58;5.80;;;;;;;-0.43;100.00;99135.41;2226507;80;20973;-85
2022/01/22 11:16:24;;;;;;;9.03;5.03;;;;;;;-0.53;100.00;99134.83;2226859;80;21055;-85
2022/01/22 11:19:23;;;;;;;11.73;5.70;;;;;;;-0.54;100.00;99141.72;2226617;80;21067;-84
2022/01/22 11:22:24;;;;;;;16.40;6.40;;;;;;;-0.61;100.00;99143.03;2227447;80;21043;-85
2022/01/22 11:25:28;;;;;;;13.53;6.40;;;;;;;-0.64;100.00;99146.63;2227367;79;21574;-84
2022/01/22 11:28:28;;;;;;;10.08;6.33;;;;;;;-0.69;100.00;99145.27;2226907;80;21052;-84
2022/01/22 11:31:28;;;;;;;16.70;9.00;;;;;;;-0.73;100.00;99151.08;2228302;79;21016;-84
2022/01/22 11:34:32;;;;;;;15.00;7.08;;;;;;;-0.73;100.00;99152.36;2227468;79;20929;-84
2022/01/22 11:37:35;;;;;;;15.08;7.37;;;;;;;-0.74;100.00;99156.30;2227065;79;20953;-85
2022/01/22 11:40:35;;;;;;;16.00;6.58;;;;;;;-0.73;100.00;99154.08;2323840;75;21558;-83
2022/01/22 11:43:47;;;;;;;;;;;;;;;;;;;;;
2022/01/22 11:46:51;;;;;;;13.10;5.90;;;;;;;-0.73;100.00;99177.23;2324015;75;21021;-84
2022/01/22 11:49:46;;;;;;;13.80;7.85;;;;;;;-0.74;100.00;99182.02;2355830;75;20994;-85
2022/01/22 11:52:51;;;;;;;16.90;8.50;;;;;;;-0.74;100.00;99185.41;2356989;75;21513;-84
2022/01/22 11:55:52;;;;;;;12.35;8.75;;;;;;;-0.77;100.00;99190.75;2357767;75;20951;-84
2022/01/22 11:58:53;;;;;;;12.23;7.53;;;;;;;-0.76;100.00;99189.00;2357854;75;21088;-83
2022/01/22 12:01:54;;;;;;;9.33;5.83;;;;;;;-0.80;100.00;99213.27;2357629;75;21049;-85
2022/01/22 12:04:59;;;;;;;10.63;6.10;;;;;;;-0.84;100.00;99202.80;2356980;75;20982;-85
2022/01/22 12:07:59;;;;;;;10.80;6.05;;;;;;;-0.84;100.00;99204.91;2357635;75;21005;-84
2022/01/22 12:17:38;;;;;;;;;;;;;;;;;;;;;
2022/01/22 12:23:50;;;;;;;15.53;7.40;;;;;;;-0.80;100.00;99222.27;2219299;80;21703;-88
2022/01/22 12:26:48;;;;;;;17.00;8.18;;;;;;;-0.72;100.00;99228.59;2205633;80;21600;-85
2022/01/22 12:29:47;;;;;;;15.55;8.55;;;;;;;-0.72;100.00;99223.45;2221412;80;20993;-86
2022/01/22 12:32:59;;;;;;;18.55;8.73;;;;;;;-0.71;100.00;99241.81;2194071;80;21041;-87
2022/01/22 12:35:53;;;;;;;20.62;10.28;;;;;;;-0.71;100.00;99251.27;2216669;80;21093;-85
2022/01/22 12:39:06;;;;;;;17.75;8.80;;;;;;;-0.71;100.00;99260.28;2210917;80;21033;-85
2022/01/22 12:42:09;;;;;;;17.20;8.10;;;;;;;-0.65;100.00;99259.88;2190971;80;21088;-84
2022/01/22 12:45:06;;;;;;;19.77;8.10;;;;;;;-0.65;100.00;99259.88;2217197;80;21548;-85
2022/01/22 12:48:07;;;;;;;13.35;6.58;;;;;;;-0.67;100.00;99272.83;2221207;80;21123;-84
2022/01/22 12:51:08;;;;;;;20.32;9.00;;;;;;;-0.74;100.00;99268.16;2276538;76;21001;-85
2022/01/22 12:54:13;;;;;;;15.08;8.05;;;;;;;-0.73;100.00;99265.95;2203721;80;21075;-86
2022/01/22 12:57:16;;;;;;;19.82;8.95;;;;;;;-0.71;100.00;99267.53;2178925;82;21751;-87
2022/01/22 13:00:21;;;;;;;24.92;12.25;;;;;;;-0.69;100.00;99270.00;2178255;82;21117;-87
2022/01/22 13:03:22;;;;;;;22.70;12.23;;;;;;;-0.68;100.00;99269.91;2179269;82;21562;-85
2022/01/22 13:06:23;;;;;;;23.75;13.85;;;;;;;-0.65;100.00;99272.73;2180199;82;20996;-85
2022/01/22 13:09:25;;;;;;;25.10;12.82;;;;;;;-0.64;100.00;99273.95;2179437;82;20961;-86
2022/01/22 13:12:27;;;;;;;16.37;9.63;;;;;;;-0.64;100.00;99284.67;2179499;82;20999;-87
2022/01/22 13:15:30;;;;;;;16.25;8.68;;;;;;;-0.66;100.00;99278.80;2184761;81;21102;-85
2022/01/22 13:18:31;;;;;;;20.62;11.38;;;;;;;-0.71;100.00;99289.39;2191039;81;21156;-86
2022/01/22 13:21:31;;;;;;;19.95;9.75;;;;;;;-0.72;100.00;99277.45;2191084;81;20968;-86
2022/01/22 13:24:35;;;;;;;16.50;8.73;;;;;;;-0.74;100.00;99290.84;2191459;81;21079;-87
2022/01/22 13:27:35;;;;;;;13.30;7.45;;;;;;;-0.76;100.00;99284.98;2190816;81;21103;-85
2022/01/22 13:30:40;;;;;;;16.37;7.37;;;;;;;-0.75;100.00;99303.80;2191142;81;21067;-86
2022/01/22 13:33:55;;;;;;;;;;;;;;;;;;;;;
2022/01/22 13:37:17;;;;;;;15.70;7.97;;;;;;;-0.77;100.00;99313.36;2190692;81;20983;-85
2022/01/22 13:49:27;;;;;;;13.43;8.00;;;;;;;-0.80;100.00;99325.95;2207196;75;20996;-86
2022/01/22 13:52:28;;;;;;;15.90;7.90;;;;;;;-0.82;100.00;99334.23;2357627;75;20919;-87
2022/01/22 13:55:30;;;;;;;19.40;8.73;;;;;;;-0.84;100.00;99339.08;2358055;75;20959;-86
2022/01/22 13:58:31;;;;;;;16.30;8.13;;;;;;;-0.84;100.00;99341.19;2358020;75;20990;-85
2022/01/22 14:01:44;;;;;;;20.12;9.68;;;;;;;-0.82;100.00;99346.23;2357887;75;21007;-86
2022/01/22 14:04:35;;;;;;;22.48;10.65;;;;;;;-0.82;100.00;99357.80;2355377;75;21142;-88
2022/01/22 14:07:40;;;;;;;19.52;10.53;;;;;;;-0.82;100.00;99371.94;2325323;75;21738;-86
2022/01/22 14:10:40;;;;;;;30.02;12.78;;;;;;;-0.83;100.00;99374.98;2357453;75;21028;-88
2022/01/22 14:13:41;;;;;;;20.52;10.20;;;;;;;-0.82;100.00;99368.94;2357307;75;21091;-87
2022/01/22 14:16:46;;;;;;;30.45;12.15;;;;;;;-0.82;100.00;99374.09;2360660;75;20982;-84
2022/01/22 14:19:45;;;;;;;23.77;12.65;;;;;;;-0.85;100.00;99372.96;2362125;75;21014;-85
2022/01/22 14:22:45;;;;;;;18.27;10.00;;;;;;;-0.86;100.00;99376.45;2362213;75;21042;-86
2022/01/22 14:25:46;;;;;;;24.10;11.20;;;;;;;-0.91;100.00;99366.46;2362334;75;21014;-85
2022/01/22 14:28:47;;;;;;;28.90;13.10;;;;;;;-0.93;100.00;99373.88;2362737;75;20954;-85
2022/01/22 14:31:51;;;;;;;17.45;9.35;;;;;;;-0.92;100.00;99372.49;2362016;75;20935;-85
2022/01/22 14:34:52;;;;;;;24.52;12.70;;;;;;;-0.95;100.00;99371.40;2362121;75;21014;-85
2022/01/22 14:37:56;;;;;;;23.12;11.70;;;;;;;-0.99;100.00;99378.11;2362262;75;21522;-84
2022/01/22 14:44:33;;;;;;;23.52;10.98;;;;;;;-1.05;100.00;99370.75;2363345;75;21056;-86
2022/01/22 14:47:29;;;;;;;22.80;9.20;;;;;;;-1.09;100.00;99385.54;2361093;75;21450;-87
2022/01/22 14:50:32;;;;;;;23.32;9.45;;;;;;;-1.09;100.00;99386.83;2362449;75;21054;-87
2022/01/22 14:53:35;;;;;;;24.30;11.15;;;;;;;-1.12;100.00;99386.16;2361332;75;21049;-87
2022/01/22 14:56:35;;;;;;;19.32;9.30;;;;;;;-1.12;100.00;99385.70;2362855;75;20958;-87
2022/01/22 14:59:36;;;;;;;20.55;10.03;;;;;;;-1.17;100.00;99397.55;2362732;75;21496;-87
2022/01/22 15:02:37;;;;;;;21.48;9.58;;;;;;;-1.17;100.00;99414.72;2361828;75;21002;-87
2022/01/22 15:05:38;;;;;;;26.42;11.00;;;;;;;-1.16;100.00;99409.48;2334685;75;21414;-86
2022/01/22 15:08:39;;;;;;;30.25;11.15;;;;;;;-1.15;100.00;99417.55;2361323;75;21525;-86
2022/01/22 15:11:40;;;;;;;24.02;11.05;;;;;;;-1.18;100.00;99419.48;2362110;75;20951;-86
2022/01/22 15:14:40;;;;;;;25.10;11.15;;;;;;;-1.21;100.00;99428.17;2362436;75;21044;-85
2022/01/22 15:20:51;;;;;;;28.38;11.83;;;;;;;-1.24;100.00;99420.66;2357763;75;21522;-86
2022/01/22 15:23:51;;;;;;;24.72;10.48;;;;;;;-1.24;100.00;99434.78;2358480;75;20970;-88
2022/01/22 15:26:52;;;;;;;24.55;12.13;;;;;;;-1.22;100.00;99432.95;2358363;75;21577;-85
2022/01/22 15:29:58;;;;;;;20.35;9.25;;;;;;;-1.23;100.00;99449.75;2358141;75;21009;-83
2022/01/22 15:33:15;;;;;;;17.82;8.58;;;;;;;-1.27;100.00;99457.27;2357320;75;20927;-82
2022/01/22 15:36:04;;;;;;;19.87;8.73;;;;;;;-1.31;100.00;99456.59;2354944;75;20990;-83
2022/01/22 15:39:05;;;;;;;24.15;11.00;;;;;;;-1.33;100.00;99461.00;2349611;75;20950;-85
2022/01/22 15:42:06;;;;;;;25.05;11.38;;;;;;;-1.36;100.00;99462.47;2352495;75;21565;-87